createdAt,value
2023-04-22T00:02:04.345Z,5.80
2023-04-22T00:07:08.140Z,5.65
2023-04-22T00:12:10.243Z,5.25
2023-04-22T00:17:09.815Z,5.55
2023-04-22T00:22:08.082Z,5.68
2023-04-22T00:33:06.829Z,5.55
2023-04-22T00:38:10.553Z,7.53
2023-04-22T00:43:12.596Z,5.18
2023-04-22T00:48:14.770Z,5.57
2023-04-22T00:53:14.709Z,5.72
2023-04-22T00:58:19.485Z,5.82
2023-04-22T01:03:22.513Z,5.38
2023-04-22T01:08:24.995Z,6.43
2023-04-22T01:13:24.306Z,5.65
2023-04-22T01:18:26.149Z,5.90
2023-04-22T01:23:24.005Z,6.97
2023-04-22T01:28:26.649Z,6.20
2023-04-22T01:33:25.795Z,7.43
2023-04-22T01:38:24.482Z,5.88
2023-04-22T01:43:25.210Z,6.35
2023-04-22T01:48:25.208Z,6.63
2023-04-22T01:53:23.553Z,7.00
2023-04-22T01:58:24.803Z,6.57
2023-04-22T02:03:27.144Z,6.07
2023-04-22T02:08:28.086Z,5.40
2023-04-22T02:13:26.699Z,5.15
2023-04-22T02:18:27.941Z,5.50
2023-04-22T02:23:28.429Z,5.32
2023-04-22T02:28:32.338Z,5.80
2023-04-22T02:38:29.883Z,4.65
2023-04-22T02:43:34.028Z,4.53
2023-04-22T02:48:36.068Z,4.75
2023-04-22T02:53:36.469Z,5.30
2023-04-22T02:58:38.778Z,4.15
2023-04-22T03:03:40.228Z,3.92
2023-04-22T03:13:56.028Z,4.70
2023-04-22T03:18:57.136Z,4.63
2023-04-22T03:24:11.299Z,4.97
2023-04-22T03:29:15.909Z,6.13
2023-04-22T03:34:15.560Z,6.30
2023-04-22T03:39:18.146Z,5.35
2023-04-22T03:44:18.720Z,6.20
2023-04-22T03:49:18.699Z,6.03
2023-04-22T03:54:17.395Z,7.75
2023-04-22T03:59:19.541Z,7.28
2023-04-22T04:04:25.538Z,8.77
2023-04-22T04:09:32.091Z,8.35
2023-04-22T04:14:45.628Z,8.85
2023-04-22T04:19:50.668Z,9.45
2023-04-22T04:24:56.488Z,8.00
2023-04-22T04:30:03.814Z,8.77
2023-04-22T04:35:20.454Z,8.18
2023-04-22T04:40:32.624Z,7.75
2023-04-22T04:45:57.242Z,9.32
2023-04-22T04:51:12.185Z,9.38
2023-04-22T04:56:17.982Z,8.32
2023-04-22T05:01:18.989Z,9.68
2023-04-22T05:06:19.740Z,10.18
2023-04-22T05:16:41.220Z,8.07
2023-04-22T05:21:42.952Z,8.07
2023-04-22T05:26:44.690Z,8.05
2023-04-22T05:31:48.109Z,7.65
2023-04-22T05:36:50.369Z,8.98
2023-04-22T05:41:53.243Z,7.70
2023-04-22T05:46:58.224Z,7.82
2023-04-22T05:52:04.329Z,7.68
2023-04-22T05:57:15.841Z,7.10
2023-04-22T06:02:18.736Z,8.45
2023-04-22T06:07:29.575Z,7.35
2023-04-22T06:12:32.283Z,7.07
2023-04-22T06:17:35.059Z,7.47
2023-04-22T06:22:44.793Z,8.80
2023-04-22T06:28:24.018Z,5.60
2023-04-22T06:33:35.126Z,5.07
2023-04-22T06:38:37.800Z,5.50
2023-04-22T06:43:57.310Z,5.68
2023-04-22T06:49:16.703Z,5.35
2023-04-22T06:54:41.904Z,5.60
2023-04-22T06:59:41.866Z,5.13
2023-04-22T07:04:41.474Z,5.93
2023-04-22T07:09:41.915Z,4.10
2023-04-22T07:14:44.780Z,3.88
2023-04-22T07:19:42.460Z,4.20
2023-04-22T07:24:41.214Z,3.55
2023-04-22T07:29:42.146Z,4.07
2023-04-22T07:34:41.908Z,3.97
2023-04-22T07:39:41.858Z,3.53
2023-04-22T07:44:41.129Z,2.95
2023-04-22T07:49:45.616Z,4.15
2023-04-22T07:54:49.579Z,4.28
2023-04-22T07:59:50.294Z,6.43
2023-04-22T08:04:48.023Z,3.75
2023-04-22T08:09:49.404Z,3.08
2023-04-22T08:14:48.304Z,3.58
2023-04-22T08:19:50.193Z,3.55
2023-04-22T08:24:49.544Z,3.00
2023-04-22T08:29:50.342Z,3.35
2023-04-22T08:34:52.039Z,3.10
2023-04-22T08:44:53.546Z,2.85
2023-04-22T08:49:55.243Z,10.25
2023-04-22T08:54:58.010Z,4.30
2023-04-22T08:59:56.982Z,4.95
2023-04-22T09:05:02.328Z,3.50
2023-04-22T09:10:02.646Z,3.83
2023-04-22T09:15:02.582Z,2.65
2023-04-22T09:20:02.146Z,2.95
2023-04-22T09:25:01.997Z,3.30
2023-04-22T09:30:11.802Z,3.47
2023-04-22T09:35:12.248Z,4.53
2023-04-22T09:40:11.548Z,3.30
2023-04-22T09:45:09.990Z,2.80
2023-04-22T09:50:11.564Z,3.10
2023-04-22T09:55:10.845Z,2.33
2023-04-22T10:00:12.797Z,3.28
2023-04-22T10:05:12.988Z,2.63
2023-04-22T10:10:12.472Z,3.03
2023-04-22T10:15:11.704Z,2.38
2023-04-22T10:20:19.889Z,2.95
2023-04-22T10:25:25.955Z,2.80
2023-04-22T10:30:33.512Z,2.60
2023-04-22T10:35:37.852Z,2.53
2023-04-22T10:41:00.503Z,2.28
2023-04-22T10:45:59.213Z,2.70
2023-04-22T10:51:00.879Z,2.75
2023-04-22T10:56:03.493Z,2.90
2023-04-22T11:01:17.042Z,2.35
2023-04-22T11:06:20.337Z,2.70
2023-04-22T11:11:19.293Z,3.05
2023-04-22T11:16:22.881Z,2.50
2023-04-22T11:26:43.974Z,3.03
2023-04-22T11:31:53.677Z,3.30
2023-04-22T11:36:57.496Z,2.72
2023-04-22T11:42:00.244Z,2.63
2023-04-22T11:47:03.543Z,3.00
2023-04-22T11:52:06.871Z,2.58
2023-04-22T11:57:09.438Z,2.67
2023-04-22T12:02:14.085Z,2.50
2023-04-22T12:13:47.565Z,2.40
2023-04-22T12:18:56.855Z,2.17
2023-04-22T12:24:10.866Z,2.45
2023-04-22T12:29:55.471Z,2.30
2023-04-22T12:34:55.498Z,2.60
2023-04-22T12:40:18.008Z,2.65
2023-04-22T12:45:19.885Z,2.10
2023-04-22T12:50:26.788Z,2.38
2023-04-22T12:55:25.498Z,2.28
2023-04-22T13:00:38.983Z,2.10
2023-04-22T13:05:40.141Z,2.90
2023-04-22T13:10:41.712Z,1.90
2023-04-22T13:15:42.749Z,1.40
2023-04-22T13:20:45.733Z,1.60
2023-04-22T13:25:46.804Z,1.98
2023-04-22T13:30:45.244Z,2.03
2023-04-22T13:35:46.889Z,2.40
2023-04-22T13:40:45.850Z,1.85
2023-04-22T13:45:45.741Z,2.53
2023-04-22T13:50:45.290Z,2.67
2023-04-22T13:55:47.537Z,2.00
2023-04-22T14:00:51.003Z,2.03
2023-04-22T14:05:57.671Z,1.88
2023-04-22T14:10:57.427Z,2.20
2023-04-22T14:15:57.662Z,1.92
2023-04-22T14:20:59.218Z,3.25
2023-04-22T14:26:01.607Z,2.78
2023-04-22T14:31:04.299Z,2.03
2023-04-22T14:36:06.066Z,2.90
2023-04-22T14:41:08.988Z,3.15
2023-04-22T14:46:12.081Z,2.58
2023-04-22T14:51:15.043Z,2.25
2023-04-22T14:56:32.251Z,1.50
2023-04-22T15:01:44.778Z,1.70
2023-04-22T15:06:46.880Z,2.03
2023-04-22T15:11:46.485Z,1.77
2023-04-22T15:16:44.869Z,2.00
2023-04-22T15:21:49.035Z,1.98
2023-04-22T15:27:03.380Z,1.67
2023-04-22T15:32:02.738Z,2.03
2023-04-22T15:37:04.752Z,1.80
2023-04-22T15:42:03.230Z,2.00
2023-04-22T15:47:03.014Z,1.50
2023-04-22T15:52:05.285Z,1.85
2023-04-22T15:57:06.697Z,1.90
2023-04-22T16:02:08.988Z,2.13
2023-04-22T16:07:09.231Z,2.20
2023-04-22T16:12:10.831Z,1.90
2023-04-22T16:17:11.140Z,2.40
2023-04-22T16:22:14.221Z,2.50
2023-04-22T16:27:17.427Z,3.13
2023-04-22T16:32:24.594Z,3.60
2023-04-22T16:37:26.183Z,2.90
2023-04-22T16:42:29.334Z,2.55
2023-04-22T16:47:30.519Z,3.35
2023-04-22T16:52:39.531Z,3.20
2023-04-22T16:57:38.654Z,2.83
2023-04-22T17:02:39.896Z,3.38
2023-04-22T17:07:40.299Z,4.55
2023-04-22T17:12:41.952Z,3.97
2023-04-22T17:17:43.298Z,3.63
2023-04-22T17:22:46.936Z,4.05
2023-04-22T17:27:49.266Z,4.75
2023-04-22T17:32:47.688Z,3.38
2023-04-22T17:37:48.924Z,3.60
2023-04-22T17:43:07.671Z,5.47
2023-04-22T17:48:10.159Z,4.10
2023-04-22T17:53:38.570Z,4.18
2023-04-22T17:58:38.861Z,3.70
2023-04-22T18:03:45.924Z,4.90
2023-04-22T18:08:50.910Z,6.07
2023-04-22T18:13:52.790Z,6.78
2023-04-22T18:19:17.036Z,5.03
2023-04-22T18:24:25.665Z,5.03
2023-04-22T18:29:26.321Z,5.57
2023-04-22T18:34:27.803Z,5.80
2023-04-22T18:45:18.454Z,5.60
2023-04-22T18:50:22.702Z,5.03
2023-04-22T18:55:49.338Z,5.07
2023-04-22T19:00:52.283Z,5.47
2023-04-22T19:06:25.641Z,6.30
2023-04-22T19:11:38.145Z,4.78
2023-04-22T19:16:41.292Z,5.40
2023-04-22T19:21:43.488Z,5.03
2023-04-22T19:26:42.808Z,4.88
2023-04-22T19:31:42.219Z,5.05
2023-04-22T19:36:41.224Z,4.65
2023-04-22T19:41:42.063Z,5.22
2023-04-22T19:46:45.858Z,11.32
2023-04-22T19:56:44.331Z,4.35
2023-04-22T20:01:46.514Z,3.70
2023-04-22T20:06:54.752Z,4.65
2023-04-22T20:11:57.056Z,4.68
2023-04-22T20:17:29.569Z,4.13
2023-04-22T20:22:31.727Z,4.50
2023-04-22T20:27:38.027Z,5.25
2023-04-22T20:32:38.293Z,4.90
2023-04-22T20:37:51.174Z,4.30
2023-04-22T20:43:18.533Z,4.53
2023-04-22T20:53:49.863Z,4.20
2023-04-22T20:58:50.465Z,4.00
2023-04-22T21:03:52.463Z,4.53
2023-04-22T21:08:53.035Z,4.53
2023-04-22T21:14:00.266Z,4.20
2023-04-22T21:19:00.988Z,6.93
2023-04-22T21:24:20.041Z,5.10
2023-04-22T21:29:23.958Z,5.90
2023-04-22T21:39:35.865Z,6.75
2023-04-22T21:44:36.757Z,6.30
2023-04-22T21:49:36.023Z,6.43
2023-04-22T21:54:43.663Z,7.13
2023-04-22T21:59:47.937Z,7.28
2023-04-22T22:04:52.930Z,8.25
2023-04-22T22:09:53.310Z,7.72
2023-04-22T22:14:56.531Z,7.45
2023-04-22T22:25:15.857Z,9.23
2023-04-22T22:30:33.576Z,8.48
2023-04-22T22:35:34.739Z,8.63
2023-04-22T22:40:32.944Z,8.93
2023-04-22T22:45:32.626Z,8.30
2023-04-22T22:50:34.024Z,9.70
2023-04-22T22:55:34.236Z,11.32
2023-04-22T23:00:32.243Z,10.98
2023-04-22T23:05:32.133Z,11.05
2023-04-22T23:10:34.828Z,10.32
2023-04-22T23:15:34.206Z,10.48
2023-04-22T23:20:44.560Z,11.40
2023-04-22T23:25:45.667Z,8.90
2023-04-22T23:30:44.976Z,6.70
2023-04-22T23:35:43.918Z,5.57
2023-04-22T23:40:46.183Z,5.15
2023-04-22T23:45:45.984Z,6.15
2023-04-22T23:50:49.511Z,4.70
2023-04-22T23:55:49.502Z,4.47
